Time;durP1;ratioP1;P1;durP2;ratioP2;P2;SDS_P1;SDS_P2;PMS_P1;PMS_P2;Temp;Humidity;BMP_temperature;BMP_pressure;BME280_temperature;BME280_humidity;BME280_pressure;Samples;Min_cycle;Max_cycle;Signal;HPM_P1;HPM_P2
2023/10/03 04:30:26;;;;;;;0.00;0.00;;;19.90;82.60;;;;;;5991073;23;20039;31
2023/10/03 04:32:55;;;;;;;0.00;0.00;;;19.80;81.90;;;;;;4798726;29;20043;-82
2023/10/03 04:35:23;;;;;;;0.00;0.00;;;19.70;81.40;;;;;;4807530;29;20031;-83
2023/10/03 04:37:51;;;;;;;0.00;0.00;;;19.60;79.60;;;;;;4821587;29;20035;-83
2023/10/03 04:40:22;;;;;;;0.00;0.00;;;19.50;79.40;;;;;;4805851;29;20060;-83
2023/10/03 04:42:52;;;;;;;0.00;0.00;;;19.40;79.40;;;;;;4791719;29;20058;-82
2023/10/03 04:45:21;;;;;;;0.00;0.00;;;19.30;78.10;;;;;;4804132;29;20031;-83
2023/10/03 04:47:48;;;;;;;0.00;0.00;;;19.30;78.20;;;;;;4788525;30;20463;-81
2023/10/03 04:50:17;;;;;;;0.00;0.00;;;19.30;78.30;;;;;;4816583;29;20066;-79
2023/10/03 04:52:48;;;;;;;0.00;0.00;;;19.20;78.10;;;;;;4821847;29;20034;-78
2023/10/03 04:55:14;;;;;;;0.00;0.00;;;19.20;77.30;;;;;;4802582;29;20487;-76
2023/10/03 04:57:41;;;;;;;0.00;0.00;;;19.20;77.80;;;;;;4807761;29;20031;-79
2023/10/03 05:00:08;;;;;;;0.00;0.00;;;19.20;76.80;;;;;;4807944;29;20571;-78
2023/10/03 05:02:34;;;;;;;0.00;0.00;;;19.10;77.10;;;;;;4804555;29;20019;-77
2023/10/03 05:04:59;;;;;;;0.00;0.00;;;19.10;77.20;;;;;;4807310;29;20050;-77
2023/10/03 05:07:25;;;;;;;0.00;0.00;;;19.00;76.80;;;;;;4807919;29;20376;-80
2023/10/03 05:09:51;;;;;;;0.00;0.00;;;19.10;77.10;;;;;;4810035;29;20030;-76
2023/10/03 05:12:18;;;;;;;0.00;0.00;;;19.00;77.10;;;;;;4806008;29;20042;-80
2023/10/03 05:14:46;;;;;;;0.00;0.00;;;19.00;77.00;;;;;;4799320;29;20031;-78
2023/10/03 05:17:12;;;;;;;0.10;0.00;;;18.90;76.80;;;;;;4801820;29;20097;-78
2023/10/03 05:19:39;;;;;;;0.05;0.05;;;18.90;77.10;;;;;;4807231;29;20042;-78
2023/10/03 05:22:08;;;;;;;0.00;0.00;;;18.90;77.50;;;;;;4791555;29;20031;-77
2023/10/03 05:24:34;;;;;;;0.00;0.00;;;18.90;77.30;;;;;;4807848;29;20121;-77
2023/10/03 05:27:00;;;;;;;0.00;0.00;;;18.90;77.00;;;;;;4807325;29;20035;-78
2023/10/03 05:29:27;;;;;;;0.00;0.00;;;18.90;77.20;;;;;;4804878;29;20031;-77
2023/10/03 05:31:54;;;;;;;0.00;0.00;;;18.80;77.20;;;;;;4812814;29;20049;-77
2023/10/03 05:34:22;;;;;;;0.00;0.00;;;18.80;77.10;;;;;;4808720;29;20038;-77
2023/10/03 05:36:51;;;;;;;0.00;0.00;;;18.80;77.00;;;;;;4824500;29;20371;-77
2023/10/03 05:39:18;;;;;;;0.00;0.00;;;18.80;77.10;;;;;;4808764;29;20494;-77
2023/10/03 05:41:44;;;;;;;0.00;0.00;;;18.80;76.90;;;;;;4828053;29;20490;-77
2023/10/03 05:44:13;;;;;;;0.00;0.00;;;18.80;76.80;;;;;;4810041;29;20117;-78
2023/10/03 05:46:42;;;;;;;0.00;0.00;;;18.80;76.80;;;;;;4826793;29;20026;-77
2023/10/03 05:49:09;;;;;;;0.00;0.00;;;18.80;76.80;;;;;;4810503;29;20629;-77
2023/10/03 05:51:35;;;;;;;0.00;0.00;;;18.80;76.80;;;;;;4829903;29;20516;-77
2023/10/03 05:54:02;;;;;;;0.00;0.00;;;18.80;76.60;;;;;;4827285;29;20042;-77
2023/10/03 05:56:28;;;;;;;0.00;0.00;;;18.70;76.80;;;;;;4828755;29;20109;-77
2023/10/03 05:58:54;;;;;;;0.00;0.00;;;18.70;76.90;;;;;;4811468;29;20038;-78
2023/10/03 06:01:20;;;;;;;0.00;0.00;;;18.70;76.30;;;;;;4842610;29;20069;-78
2023/10/03 06:03:45;;;;;;;0.00;0.00;;;18.70;76.70;;;;;;4811991;29;20509;-77
2023/10/03 06:06:11;;;;;;;0.10;0.05;;;18.60;76.80;;;;;;4839219;29;20034;-77
2023/10/03 06:08:37;;;;;;;0.00;0.00;;;18.50;76.60;;;;;;4808798;29;20518;-77
2023/10/03 06:11:03;;;;;;;0.00;0.00;;;18.50;76.60;;;;;;4817375;29;20065;-77
2023/10/03 06:13:29;;;;;;;0.00;0.00;;;18.50;76.70;;;;;;4827052;29;20117;-77
2023/10/03 06:15:59;;;;;;;0.00;0.00;;;18.50;76.30;;;;;;4827440;29;20118;-78
2023/10/03 06:18:27;;;;;;;0.00;0.00;;;18.40;76.60;;;;;;4826466;29;20018;-77
2023/10/03 06:20:52;;;;;;;0.00;0.00;;;18.50;76.60;;;;;;4828341;29;20091;-77
2023/10/03 06:23:18;;;;;;;0.00;0.00;;;18.50;76.50;;;;;;4812007;29;20034;-77
2023/10/03 06:25:44;;;;;;;0.00;0.00;;;18.50;76.10;;;;;;4811965;29;20049;-77
2023/10/03 06:28:09;;;;;;;0.00;0.00;;;18.40;76.30;;;;;;4813898;29;20035;-78
2023/10/03 06:30:38;;;;;;;0.00;0.00;;;18.50;75.80;;;;;;4809382;29;20477;-77
2023/10/03 06:33:05;;;;;;;0.00;0.00;;;18.40;75.90;;;;;;4838149;29;20039;-77
2023/10/03 06:35:32;;;;;;;0.00;0.00;;;18.40;75.80;;;;;;4810210;29;20486;-77
2023/10/03 06:37:57;;;;;;;0.00;0.00;;;18.50;75.80;;;;;;4809974;29;20035;-78
2023/10/03 06:40:23;;;;;;;0.00;0.00;;;18.50;75.60;;;;;;4818065;29;20064;-77
2023/10/03 06:42:49;;;;;;;0.00;0.00;;;18.50;75.60;;;;;;4827114;29;20118;-77
2023/10/03 06:45:14;;;;;;;0.00;0.00;;;18.50;75.60;;;;;;4827044;29;20072;-78
2023/10/03 06:47:40;;;;;;;0.00;0.00;;;18.50;75.50;;;;;;4827785;29;20042;-77
2023/10/03 06:50:07;;;;;;;0.00;0.00;;;18.60;75.40;;;;;;4828046;29;20031;-77
2023/10/03 06:52:34;;;;;;;0.00;0.00;;;18.50;75.30;;;;;;4827059;29;20062;-77
2023/10/03 06:55:01;;;;;;;0.00;0.00;;;18.50;75.10;;;;;;4826640;29;20128;-77
2023/10/03 06:57:27;;;;;;;0.00;0.00;;;18.50;75.50;;;;;;4841369;29;20050;-77
2023/10/03 06:59:54;;;;;;;0.00;0.00;;;18.50;75.50;;;;;;4827992;29;20110;-77
2023/10/03 07:02:20;;;;;;;0.00;0.00;;;18.50;75.40;;;;;;4826519;29;20042;-77
2023/10/03 07:04:46;;;;;;;0.00;0.00;;;18.50;75.50;;;;;;4842888;29;20114;-78
2023/10/03 07:07:13;;;;;;;0.03;0.03;;;18.40;75.60;;;;;;4838911;29;20475;-77
2023/10/03 07:09:39;;;;;;;0.00;0.00;;;18.50;75.40;;;;;;4827619;29;20037;-77
2023/10/03 07:12:08;;;;;;;0.00;0.00;;;18.50;75.20;;;;;;4827840;29;20134;-77
2023/10/03 07:14:37;;;;;;;0.00;0.00;;;18.60;74.90;;;;;;4827626;29;20030;-78
2023/10/03 07:17:04;;;;;;;0.00;0.00;;;18.70;75.00;;;;;;4826609;29;20087;-77
2023/10/03 07:19:30;;;;;;;0.10;0.10;;;18.80;74.60;;;;;;4841507;29;20030;-78
2023/10/03 07:21:57;;;;;;;0.00;0.00;;;19.30;73.40;;;;;;4827484;29;20027;-77
2023/10/03 07:24:25;;;;;;;0.03;0.03;;;19.60;72.20;;;;;;4826737;29;20037;-77
2023/10/03 07:26:51;;;;;;;0.05;0.05;;;19.70;71.90;;;;;;4827551;29;20046;-77
2023/10/03 07:29:17;;;;;;;0.20;0.20;;;19.60;71.80;;;;;;4827031;29;20550;-77
2023/10/03 07:31:43;;;;;;;0.10;0.10;;;20.90;69.70;;;;;;4827041;29;20050;-77
2023/10/03 07:34:09;;;;;;;0.22;0.20;;;21.40;66.80;;;;;;4826278;29;20387;-78
2023/10/03 07:36:36;;;;;;;0.00;0.00;;;21.00;67.50;;;;;;4826406;29;20031;-77
2023/10/03 07:39:03;;;;;;;0.10;0.10;;;21.00;67.30;;;;;;4811208;29;20035;-77
2023/10/03 07:41:29;;;;;;;0.00;0.00;;;20.90;67.80;;;;;;4819650;29;20019;-77
2023/10/03 07:43:54;;;;;;;0.00;0.00;;;21.10;66.80;;;;;;4826188;29;20037;-77
2023/10/03 07:46:21;;;;;;;0.03;0.03;;;20.80;67.90;;;;;;4827168;29;20402;-77
2023/10/03 07:48:52;;;;;;;0.00;0.00;;;20.80;67.90;;;;;;4826250;29;20030;-77
2023/10/03 07:51:19;;;;;;;0.00;0.00;;;20.20;68.80;;;;;;4827130;29;20433;-78
2023/10/03 07:53:46;;;;;;;0.00;0.00;;;19.90;69.90;;;;;;4826877;29;20037;-78
2023/10/03 07:56:25;;;;;;;0.00;0.00;;;19.60;70.60;;;;;;4831362;29;20029;-77
2023/10/03 07:58:54;;;;;;;0.10;0.10;;;19.30;71.20;;;;;;4810206;29;20135;-77
2023/10/03 08:01:27;;;;;;;0.00;0.00;;;19.30;71.70;;;;;;4826185;29;20754;-77
2023/10/03 08:03:53;;;;;;;0.00;0.00;;;19.30;71.80;;;;;;4821603;29;20050;-77
2023/10/03 08:06:23;;;;;;;0.00;0.00;;;19.20;72.20;;;;;;4792623;29;20141;-77
2023/10/03 08:08:55;;;;;;;0.00;0.00;;;19.30;72.30;;;;;;4825108;29;20071;-77
2023/10/03 08:11:28;;;;;;;0.00;0.00;;;19.40;72.20;;;;;;4826885;29;20514;-77
2023/10/03 08:13:58;;;;;;;0.00;0.00;;;19.30;72.20;;;;;;4826901;29;20078;-77
2023/10/03 08:16:25;;;;;;;0.00;0.00;;;19.20;72.30;;;;;;4826820;29;20030;-77
2023/10/03 08:18:58;;;;;;;0.00;0.00;;;19.20;72.20;;;;;;4821871;29;20094;-78
2023/10/03 08:21:27;;;;;;;0.00;0.00;;;19.00;72.30;;;;;;4796562;29;20034;-77
2023/10/03 08:23:55;;;;;;;0.00;0.00;;;19.10;72.60;;;;;;4826825;29;20038;-77
2023/10/03 08:26:25;;;;;;;0.05;0.05;;;19.20;72.80;;;;;;4808955;29;20046;-78
2023/10/03 08:29:04;;;;;;;0.00;0.00;;;19.30;71.90;;;;;;4808430;29;20092;-78
2023/10/03 08:31:30;;;;;;;0.00;0.00;;;19.20;70.40;;;;;;4814560;29;20146;-77
2023/10/03 08:33:56;;;;;;;0.00;0.00;;;19.20;70.20;;;;;;4837123;29;20039;-77
2023/10/03 08:36:23;;;;;;;0.03;0.03;;;19.20;70.10;;;;;;4808500;29;20106;-77
2023/10/03 08:38:49;;;;;;;0.00;0.00;;;19.20;69.80;;;;;;4807160;29;20091;-77
2023/10/03 08:41:26;;;;;;;0.00;0.00;;;19.30;69.70;;;;;;4820819;29;20062;-77
2023/10/03 08:43:56;;;;;;;0.00;0.00;;;19.40;70.10;;;;;;4826619;29;20109;-78
2023/10/03 08:46:29;;;;;;;0.00;0.00;;;19.50;69.30;;;;;;4826399;29;20038;-77
2023/10/03 08:49:00;;;;;;;0.00;0.00;;;19.60;68.20;;;;;;4808499;29;20039;-77
2023/10/03 08:51:32;;;;;;;0.00;0.00;;;19.60;68.00;;;;;;4811701;29;20042;-77
2023/10/03 08:54:08;;;;;;;0.00;0.00;;;19.60;66.60;;;;;;4826520;29;20560;-77
2023/10/03 08:56:35;;;;;;;0.00;0.00;;;19.60;66.10;;;;;;4826295;29;20042;-77
2023/10/03 08:59:03;;;;;;;0.00;0.00;;;19.50;66.00;;;;;;4854797;29;20022;-77
2023/10/03 09:01:33;;;;;;;0.00;0.00;;;19.50;66.10;;;;;;4855519;29;20034;-78
2023/10/03 09:04:04;;;;;;;0.00;0.00;;;19.30;66.30;;;;;;4850574;29;20620;-78
2023/10/03 09:06:38;;;;;;;0.10;0.10;;;19.40;66.70;;;;;;4824386;29;20039;-77
2023/10/03 09:09:13;;;;;;;0.00;0.00;;;19.30;66.60;;;;;;4825566;29;20057;-77
2023/10/03 09:11:43;;;;;;;0.00;0.00;;;19.30;66.50;;;;;;4826263;29;20034;-76
2023/10/03 09:14:22;;;;;;;0.00;0.00;;;19.30;66.90;;;;;;4826330;29;20069;-77
2023/10/03 09:16:53;;;;;;;0.00;0.00;;;19.40;66.30;;;;;;4828890;29;20052;-77
2023/10/03 09:19:23;;;;;;;0.00;0.00;;;19.30;64.50;;;;;;4842757;29;20037;-76
2023/10/03 09:21:52;;;;;;;0.00;0.00;;;19.30;64.10;;;;;;4829385;29;20054;-77
2023/10/03 09:24:24;;;;;;;0.10;0.10;;;19.30;63.30;;;;;;4829219;29;20097;-77
2023/10/03 09:26:52;;;;;;;0.00;0.00;;;19.30;63.70;;;;;;4828445;29;20026;-77
2023/10/03 09:29:32;;;;;;;0.10;0.10;;;19.30;63.50;;;;;;4843322;29;20038;-77
2023/10/03 09:32:00;;;;;;;0.00;0.00;;;19.20;63.30;;;;;;4828281;29;20086;-77
2023/10/03 09:34:32;;;;;;;0.10;0.10;;;19.30;63.60;;;;;;4828879;29;20031;-77
2023/10/03 09:37:02;;;;;;;0.00;0.00;;;19.40;64.00;;;;;;4829171;29;20383;-77
2023/10/03 09:39:30;;;;;;;0.00;0.00;;;19.50;64.10;;;;;;4829153;29;20023;-77
2023/10/03 09:41:57;;;;;;;0.10;0.10;;;19.60;61.80;;;;;;4811374;29;20448;-77
2023/10/03 09:44:32;;;;;;;0.05;0.05;;;19.60;62.60;;;;;;4811048;29;20031;-77
2023/10/03 09:47:06;;;;;;;0.00;0.00;;;19.60;61.90;;;;;;4805116;29;20034;-77
2023/10/03 09:49:38;;;;;;;0.00;0.00;;;19.70;61.70;;;;;;4830732;29;20022;-77
2023/10/03 09:52:32;;;;;;;0.00;0.00;;;19.70;61.80;;;;;;4828916;29;20045;-77
2023/10/03 09:55:02;;;;;;;0.00;0.00;;;19.80;62.40;;;;;;4814656;29;20066;-77
2023/10/03 09:57:30;;;;;;;0.10;0.10;;;19.80;61.50;;;;;;4828866;29;20455;-77
2023/10/03 09:59:56;;;;;;;0.10;0.10;;;19.70;59.70;;;;;;4817384;29;20092;-77
2023/10/03 10:02:37;;;;;;;0.10;0.10;;;19.60;60.30;;;;;;4816628;29;20034;-76
2023/10/03 10:05:19;;;;;;;0.10;0.10;;;19.70;60.50;;;;;;4828865;29;20029;-77
2023/10/03 10:08:10;;;;;;;0.00;0.00;;;19.80;60.00;;;;;;4828955;29;20042;-77
2023/10/03 10:10:35;;;;;;;0.00;0.00;;;19.80;59.70;;;;;;4814993;29;20091;-77
2023/10/03 10:13:23;;;;;;;0.08;0.08;;;19.80;59.40;;;;;;4794242;29;20125;-76
2023/10/03 10:16:03;;;;;;;0.03;0.03;;;19.70;58.30;;;;;;4810304;29;20027;-77
2023/10/03 10:18:44;;;;;;;0.00;0.00;;;19.80;59.60;;;;;;4820097;29;20027;-77
2023/10/03 10:21:26;;;;;;;0.10;0.10;;;19.90;58.20;;;;;;4817047;29;20034;-77
2023/10/03 10:24:15;;;;;;;0.00;0.00;;;19.90;58.40;;;;;;4812332;29;20031;-77
2023/10/03 10:26:42;;;;;;;0.00;0.00;;;20.00;57.70;;;;;;4827316;29;20567;-77
2023/10/03 10:29:09;;;;;;;0.00;0.00;;;20.10;57.90;;;;;;4827751;29;20038;-77
2023/10/03 10:31:57;;;;;;;0.03;0.03;;;20.00;56.30;;;;;;4828040;29;20142;-77
2023/10/03 10:34:27;;;;;;;0.00;0.00;;;20.00;58.00;;;;;;4842334;29;20525;-77
2023/10/03 10:37:09;;;;;;;0.00;0.00;;;20.20;58.10;;;;;;4839423;29;20034;-77
2023/10/03 10:39:53;;;;;;;0.00;0.00;;;20.20;58.30;;;;;;4810761;29;20083;-77
2023/10/03 10:42:22;;;;;;;0.03;0.03;;;20.30;58.10;;;;;;4814251;29;20026;-77
2023/10/03 10:45:03;;;;;;;0.10;0.10;;;20.30;58.30;;;;;;4812358;29;20125;-77
2023/10/03 10:47:31;;;;;;;0.00;0.00;;;20.20;56.70;;;;;;4828129;29;20027;-77
2023/10/03 10:49:58;;;;;;;0.10;0.10;;;20.20;56.90;;;;;;4826597;29;20486;-77
2023/10/03 10:52:24;;;;;;;0.03;0.03;;;20.30;58.10;;;;;;4826805;29;20038;-77
2023/10/03 10:54:49;;;;;;;0.00;0.00;;;20.40;57.20;;;;;;4818603;29;20525;-77
2023/10/03 10:57:15;;;;;;;0.10;0.10;;;20.50;57.10;;;;;;4809812;29;20035;-77
2023/10/03 10:59:43;;;;;;;0.00;0.00;;;20.60;57.00;;;;;;4809710;29;20030;-77
2023/10/03 11:02:19;;;;;;;0.00;0.00;;;20.50;56.90;;;;;;4816072;29;20045;-77
2023/10/03 11:04:53;;;;;;;0.00;0.00;;;20.60;57.20;;;;;;4845694;29;20446;-76
2023/10/03 11:07:22;;;;;;;0.00;0.00;;;20.70;56.40;;;;;;4840594;29;20117;-77
2023/10/03 11:09:50;;;;;;;0.00;0.00;;;20.60;56.10;;;;;;4809445;29;20031;-77
2023/10/03 11:12:27;;;;;;;0.10;0.10;;;20.70;55.90;;;;;;4808303;29;20031;-77
2023/10/03 11:14:56;;;;;;;0.00;0.00;;;20.80;56.00;;;;;;4809394;29;20058;-76
2023/10/03 11:17:23;;;;;;;0.00;0.00;;;20.80;55.90;;;;;;4816524;29;20127;-77
2023/10/03 11:19:50;;;;;;;0.10;0.10;;;20.80;56.70;;;;;;4827338;29;20541;-77
2023/10/03 11:22:17;;;;;;;0.00;0.00;;;21.00;56.20;;;;;;4826979;29;20030;-77
2023/10/03 11:24:44;;;;;;;0.05;0.05;;;21.00;55.70;;;;;;4811006;29;20051;-77
2023/10/03 11:27:25;;;;;;;0.00;0.00;;;21.00;55.20;;;;;;4826983;29;20030;-77
2023/10/03 11:29:50;;;;;;;0.00;0.00;;;20.80;55.10;;;;;;4826783;29;20113;-76
2023/10/03 11:32:20;;;;;;;0.00;0.00;;;20.90;55.70;;;;;;4827223;29;20086;-77
2023/10/03 11:34:47;;;;;;;0.00;0.00;;;20.90;55.70;;;;;;4826304;29;20125;-77
2023/10/03 11:37:31;;;;;;;0.00;0.00;;;21.10;56.00;;;;;;4825975;29;20114;-77
2023/10/03 11:40:14;;;;;;;0.00;0.00;;;21.20;54.10;;;;;;4828190;29;20026;-77
2023/10/03 11:42:56;;;;;;;0.05;0.05;;;21.40;54.70;;;;;;4816717;29;20117;-77
2023/10/03 11:45:25;;;;;;;0.10;0.10;;;21.50;53.50;;;;;;4810893;29;20113;-77
2023/10/03 11:48:04;;;;;;;0.03;0.03;;;21.50;52.40;;;;;;4826817;29;20039;-77
2023/10/03 11:50:36;;;;;;;0.08;0.08;;;21.40;52.70;;;;;;4826294;29;20038;-77
2023/10/03 11:53:02;;;;;;;0.00;0.00;;;21.50;52.90;;;;;;4827023;29;20023;-76
2023/10/03 11:55:29;;;;;;;0.08;0.08;;;21.50;52.40;;;;;;4826713;29;20636;-77
2023/10/03 11:57:54;;;;;;;0.00;0.00;;;21.50;51.70;;;;;;4825702;29;20027;-77
2023/10/03 12:00:24;;;;;;;0.00;0.00;;;21.60;51.70;;;;;;4810630;29;20121;-77
2023/10/03 12:02:51;;;;;;;0.00;0.00;;;21.60;51.90;;;;;;4822011;29;20068;-76
2023/10/03 12:05:16;;;;;;;0.00;0.00;;;21.70;51.50;;;;;;4808745;29;20482;-77
2023/10/03 12:07:46;;;;;;;0.00;0.00;;;21.70;50.50;;;;;;4808624;29;20041;-77
2023/10/03 12:10:14;;;;;;;0.00;0.00;;;21.60;51.40;;;;;;4816083;29;20042;-76
2023/10/03 12:12:40;;;;;;;0.00;0.00;;;21.40;50.70;;;;;;4825545;29;20098;-77
2023/10/03 12:15:12;;;;;;;0.00;0.00;;;21.30;50.90;;;;;;4822318;29;20472;-77
2023/10/03 12:17:42;;;;;;;0.10;0.10;;;21.10;51.00;;;;;;4808376;29;20079;-77
2023/10/03 12:20:13;;;;;;;0.00;0.00;;;21.00;51.10;;;;;;4792077;29;20058;-76
2023/10/03 12:22:43;;;;;;;0.00;0.00;;;20.90;51.20;;;;;;4822019;29;20034;-77
2023/10/03 12:25:14;;;;;;;0.00;0.00;;;20.80;51.70;;;;;;4809017;29;20034;-77
2023/10/03 12:27:41;;;;;;;0.00;0.00;;;21.00;52.10;;;;;;4826271;29;20120;-77
2023/10/03 12:30:11;;;;;;;0.00;0.00;;;21.10;51.40;;;;;;4810136;29;20034;-77
2023/10/03 12:32:50;;;;;;;0.00;0.00;;;21.20;51.10;;;;;;4825807;29;20056;-77
2023/10/03 12:35:16;;;;;;;0.00;0.00;;;21.20;51.20;;;;;;4825673;29;20486;-76
2023/10/03 12:37:44;;;;;;;0.00;0.00;;;21.50;51.00;;;;;;4792414;29;20026;-77
2023/10/03 12:40:15;;;;;;;0.10;0.10;;;21.70;50.20;;;;;;4813492;29;20042;-77
2023/10/03 12:42:50;;;;;;;0.00;0.00;;;21.90;50.50;;;;;;4826343;29;20034;-77
2023/10/03 12:45:17;;;;;;;0.00;0.00;;;22.10;49.70;;;;;;4825800;29;20089;-77
2023/10/03 12:47:47;;;;;;;0.05;0.05;;;22.30;50.30;;;;;;4825772;29;20027;-77
2023/10/03 12:50:21;;;;;;;0.00;0.00;;;22.60;49.00;;;;;;4792514;29;20510;-77
2023/10/03 12:52:51;;;;;;;0.00;0.00;;;22.80;48.60;;;;;;4826019;29;20088;-77
2023/10/03 12:55:17;;;;;;;0.00;0.00;;;22.90;47.80;;;;;;4811910;29;20033;-77
2023/10/03 12:57:46;;;;;;;0.00;0.00;;;23.10;47.70;;;;;;4813310;29;20035;-76
2023/10/03 13:00:12;;;;;;;0.10;0.10;;;23.00;47.70;;;;;;4844147;29;20494;-77
2023/10/03 13:02:40;;;;;;;0.00;0.00;;;23.00;47.30;;;;;;4827730;29;20041;-76
2023/10/03 13:05:06;;;;;;;0.00;0.00;;;23.20;47.80;;;;;;4829663;29;20030;-77
2023/10/03 13:07:35;;;;;;;0.00;0.00;;;23.10;45.70;;;;;;4828500;29;20030;-77
2023/10/03 13:10:06;;;;;;;0.10;0.10;;;23.10;45.60;;;;;;4828590;29;20034;-77
2023/10/03 13:12:33;;;;;;;0.00;0.00;;;23.10;45.60;;;;;;4828408;29;20030;-77
2023/10/03 13:14:59;;;;;;;0.00;0.00;;;23.30;46.00;;;;;;4848072;29;20503;-76
2023/10/03 13:17:27;;;;;;;0.00;0.00;;;23.00;46.40;;;;;;4847787;29;20026;-77
2023/10/03 13:19:54;;;;;;;0.00;0.00;;;22.60;48.20;;;;;;4837667;29;20026;-77
2023/10/03 13:22:20;;;;;;;0.00;0.00;;;22.20;47.90;;;;;;4828376;29;20027;-76
2023/10/03 13:24:46;;;;;;;0.00;0.00;;;22.10;48.10;;;;;;4829147;29;20102;-77
2023/10/03 13:27:14;;;;;;;0.00;0.00;;;22.00;47.30;;;;;;4829269;29;20038;-77
2023/10/03 13:29:39;;;;;;;0.08;0.08;;;22.00;47.40;;;;;;4828339;29;20038;-77
2023/10/03 13:32:05;;;;;;;0.00;0.00;;;22.30;47.10;;;;;;4829958;29;20069;-76
2023/10/03 13:34:31;;;;;;;0.00;0.00;;;22.30;46.30;;;;;;4812881;29;20147;-77
2023/10/03 13:36:56;;;;;;;0.05;0.05;;;22.40;46.80;;;;;;4829325;29;20038;-77
2023/10/03 13:39:26;;;;;;;0.00;0.00;;;22.40;46.30;;;;;;4828384;29;20061;-77
2023/10/03 13:41:53;;;;;;;0.00;0.00;;;22.40;46.80;;;;;;4829097;29;20026;-77
2023/10/03 13:44:19;;;;;;;0.00;0.00;;;22.20;47.20;;;;;;4828364;29;20069;-77
2023/10/03 13:46:46;;;;;;;0.00;0.00;;;21.80;47.60;;;;;;4828397;29;20117;-77
2023/10/03 13:49:15;;;;;;;0.00;0.00;;;21.80;47.40;;;;;;4828668;29;20058;-77
2023/10/03 13:51:41;;;;;;;0.00;0.00;;;21.70;47.30;;;;;;4809161;29;20064;-77
2023/10/03 13:54:06;;;;;;;0.00;0.00;;;21.70;48.00;;;;;;4809513;29;20031;-77
2023/10/03 13:56:35;;;;;;;0.00;0.00;;;21.70;48.10;;;;;;4810953;29;20031;-77
2023/10/03 13:59:05;;;;;;;0.00;0.00;;;21.70;48.10;;;;;;4810751;29;20049;-77
2023/10/03 14:01:30;;;;;;;0.00;0.00;;;21.50;48.00;;;;;;4809627;29;20031;-77
2023/10/03 14:03:57;;;;;;;0.00;0.00;;;21.60;47.80;;;;;;4824168;29;20041;-77
2023/10/03 14:06:25;;;;;;;0.00;0.00;;;21.70;48.10;;;;;;4827413;29;20042;-77
2023/10/03 14:08:54;;;;;;;0.10;0.10;;;21.70;47.80;;;;;;4828660;29;20090;-77
2023/10/03 14:11:21;;;;;;;0.05;0.05;;;21.70;48.10;;;;;;4828793;29;20054;-77
2023/10/03 14:13:51;;;;;;;0.00;0.00;;;21.70;47.20;;;;;;4816896;29;20063;-76
2023/10/03 14:16:21;;;;;;;0.00;0.00;;;21.70;47.70;;;;;;4794807;29;20030;-77
2023/10/03 14:18:52;;;;;;;0.00;0.00;;;21.60;47.00;;;;;;4810186;29;20079;-77
2023/10/03 14:21:18;;;;;;;0.00;0.00;;;21.50;48.30;;;;;;4824304;29;20038;-77
2023/10/03 14:23:44;;;;;;;0.00;0.00;;;21.30;47.30;;;;;;4824060;29;20034;-77
2023/10/03 14:26:09;;;;;;;0.00;0.00;;;21.20;45.90;;;;;;4810443;29;20106;-77
2023/10/03 14:28:35;;;;;;;0.00;0.00;;;21.30;46.60;;;;;;4810295;29;20070;-76
2023/10/03 14:31:03;;;;;;;0.00;0.00;;;21.30;46.50;;;;;;4818789;29;20061;-77
2023/10/03 14:33:32;;;;;;;0.00;0.00;;;21.50;46.40;;;;;;4827913;29;20051;-76
2023/10/03 14:35:59;;;;;;;0.10;0.10;;;21.50;46.10;;;;;;4828250;29;20034;-77
2023/10/03 14:38:26;;;;;;;0.00;0.00;;;21.50;45.90;;;;;;4827452;29;20038;-77
2023/10/03 14:40:55;;;;;;;0.00;0.00;;;21.60;45.30;;;;;;4828283;29;20026;-76
2023/10/03 14:43:21;;;;;;;0.08;0.08;;;21.60;45.60;;;;;;4819744;29;20039;-77
2023/10/03 14:45:47;;;;;;;0.10;0.10;;;21.60;45.60;;;;;;4810188;29;20196;-76
2023/10/03 14:48:13;;;;;;;0.10;0.10;;;21.60;45.20;;;;;;4793638;29;20034;-77
2023/10/03 14:50:39;;;;;;;0.00;0.00;;;21.50;44.20;;;;;;4810168;29;20031;-77
2023/10/03 14:53:05;;;;;;;0.00;0.00;;;21.50;44.90;;;;;;4828117;29;20022;-76
2023/10/03 14:55:30;;;;;;;0.00;0.00;;;21.50;45.60;;;;;;4827827;29;20075;-76
2023/10/03 14:57:58;;;;;;;0.00;0.00;;;21.50;44.90;;;;;;4827172;29;20055;-76
2023/10/03 15:00:24;;;;;;;0.00;0.00;;;21.60;45.80;;;;;;4827967;29;20038;-76
2023/10/03 15:02:53;;;;;;;0.00;0.00;;;21.50;46.30;;;;;;4823774;29;20046;-77
2023/10/03 15:05:19;;;;;;;0.00;0.00;;;21.50;46.40;;;;;;4825933;29;20037;-77
2023/10/03 15:07:44;;;;;;;0.00;0.00;;;21.50;46.50;;;;;;4826721;29;20490;-77
2023/10/03 15:10:10;;;;;;;0.00;0.00;;;21.40;47.30;;;;;;4827852;29;20036;-76
2023/10/03 15:12:39;;;;;;;0.00;0.00;;;21.40;47.90;;;;;;4825800;29;20034;-76
2023/10/03 15:15:05;;;;;;;0.00;0.00;;;21.40;48.90;;;;;;4826332;29;20046;-77
2023/10/03 15:17:35;;;;;;;0.00;0.00;;;21.30;48.80;;;;;;4827564;29;20062;-77
2023/10/03 15:20:04;;;;;;;0.00;0.00;;;21.40;49.00;;;;;;4830677;29;20062;-77
2023/10/03 15:22:31;;;;;;;0.00;0.00;;;21.20;49.80;;;;;;4827669;29;20042;-76
2023/10/03 15:24:57;;;;;;;0.00;0.00;;;20.90;50.40;;;;;;4827239;29;20459;-77
2023/10/03 15:27:23;;;;;;;0.00;0.00;;;20.80;50.80;;;;;;4810548;29;20125;-76
2023/10/03 15:29:48;;;;;;;0.00;0.00;;;20.80;51.20;;;;;;4829543;29;20032;-77
2023/10/03 15:32:14;;;;;;;0.00;0.00;;;20.70;51.50;;;;;;4823851;29;20065;-76
2023/10/03 15:34:40;;;;;;;0.00;0.00;;;20.50;52.60;;;;;;4826730;29;20034;-77
2023/10/03 15:37:08;;;;;;;0.00;0.00;;;20.40;52.80;;;;;;4840941;29;20041;-76
2023/10/03 15:39:34;;;;;;;0.00;0.00;;;20.50;52.80;;;;;;4827209;29;20030;-76
2023/10/03 15:42:00;;;;;;;0.00;0.00;;;20.60;52.90;;;;;;4827391;29;20035;-77
2023/10/03 15:44:25;;;;;;;0.00;0.00;;;20.70;52.70;;;;;;4826152;29;20042;-76
2023/10/03 15:46:51;;;;;;;0.00;0.00;;;20.80;52.70;;;;;;4827319;29;20034;-76
2023/10/03 15:49:19;;;;;;;0.00;0.00;;;20.90;52.70;;;;;;4826043;29;20038;-77
2023/10/03 15:51:46;;;;;;;0.00;0.00;;;20.90;52.50;;;;;;4822242;29;20039;-77
2023/10/03 15:54:13;;;;;;;0.00;0.00;;;20.90;51.20;;;;;;4807419;29;20037;-76
2023/10/03 15:56:39;;;;;;;0.00;0.00;;;20.80;51.70;;;;;;4808902;29;20027;-77
2023/10/03 15:59:06;;;;;;;0.08;0.08;;;20.80;51.90;;;;;;4812671;29;20121;-76
2023/10/03 16:01:32;;;;;;;0.10;0.10;;;20.80;52.10;;;;;;4825324;29;20031;-77
2023/10/03 16:03:58;;;;;;;0.00;0.00;;;20.80;52.50;;;;;;4824785;29;20037;-76
2023/10/03 16:06:23;;;;;;;0.00;0.00;;;20.70;52.90;;;;;;4824183;29;20034;-76
2023/10/03 16:08:51;;;;;;;0.00;0.00;;;20.50;52.90;;;;;;4824814;29;20086;-77
2023/10/03 16:11:17;;;;;;;0.00;0.00;;;20.40;54.20;;;;;;4825830;29;20056;-77
2023/10/03 16:13:44;;;;;;;0.00;0.00;;;20.40;54.80;;;;;;4825891;29;20041;-76
2023/10/03 16:16:10;;;;;;;0.00;0.00;;;20.50;55.20;;;;;;4824839;29;20525;-76
2023/10/03 16:18:36;;;;;;;0.10;0.10;;;20.40;55.00;;;;;;4823760;29;20026;-76
2023/10/03 16:21:07;;;;;;;0.03;0.03;;;20.30;55.30;;;;;;4822065;29;20030;-77
2023/10/03 16:23:33;;;;;;;0.00;0.00;;;20.40;54.90;;;;;;4824187;29;20574;-78
2023/10/03 16:25:58;;;;;;;0.00;0.00;;;20.30;55.20;;;;;;4824861;29;20117;-80
2023/10/03 16:28:24;;;;;;;0.00;0.00;;;20.40;55.20;;;;;;4825761;29;20045;-77
2023/10/03 16:30:51;;;;;;;0.00;0.00;;;20.30;55.20;;;;;;4818464;29;20043;-77
2023/10/03 16:33:18;;;;;;;0.00;0.00;;;20.30;55.60;;;;;;4818637;29;20054;-77
2023/10/03 16:35:44;;;;;;;0.00;0.00;;;20.30;55.50;;;;;;4825534;29;20023;-76
2023/10/03 16:38:12;;;;;;;0.00;0.00;;;20.30;55.80;;;;;;4809120;29;20033;-77
2023/10/03 16:40:38;;;;;;;0.10;0.10;;;20.20;55.90;;;;;;4809043;29;20049;-77
2023/10/03 16:43:07;;;;;;;0.00;0.00;;;20.20;56.10;;;;;;4825805;29;20101;-77
2023/10/03 16:45:36;;;;;;;0.05;0.05;;;20.10;56.30;;;;;;4823903;29;20065;-77
2023/10/03 16:48:07;;;;;;;0.00;0.00;;;20.00;55.90;;;;;;4824453;29;20035;-76
2023/10/03 16:50:36;;;;;;;0.00;0.00;;;19.90;55.60;;;;;;4813942;29;20041;-77
2023/10/03 16:53:02;;;;;;;0.00;0.00;;;19.80;55.90;;;;;;4831527;29;20117;-76
2023/10/03 16:55:27;;;;;;;0.00;0.00;;;19.80;55.80;;;;;;4833476;29;20043;-76
2023/10/03 16:57:53;;;;;;;0.00;0.00;;;19.70;56.10;;;;;;4833639;29;20417;-77
2023/10/03 17:00:19;;;;;;;0.00;0.00;;;19.50;55.70;;;;;;4812829;29;20034;-77
2023/10/03 17:02:46;;;;;;;0.10;0.00;;;19.40;56.60;;;;;;4827450;29;20037;-77
2023/10/03 17:05:13;;;;;;;0.00;0.00;;;19.40;56.80;;;;;;4813842;29;20130;-77
2023/10/03 17:07:42;;;;;;;0.00;0.00;;;19.30;57.20;;;;;;4826927;29;20082;-77
2023/10/03 17:10:09;;;;;;;0.00;0.00;;;19.30;57.50;;;;;;4834288;29;20107;-76
2023/10/03 17:12:38;;;;;;;0.00;0.00;;;19.20;57.60;;;;;;4814102;29;20051;-77
2023/10/03 17:15:11;;;;;;;0.00;0.00;;;19.20;57.80;;;;;;4819554;29;20049;-77
2023/10/03 17:17:41;;;;;;;0.00;0.00;;;19.10;57.90;;;;;;4833830;29;20026;-77
2023/10/03 17:20:17;;;;;;;0.00;0.00;;;19.00;58.30;;;;;;4833434;29;20034;-76
2023/10/03 17:22:44;;;;;;;0.00;0.00;;;19.00;58.50;;;;;;4830521;29;20486;-79
2023/10/03 17:25:10;;;;;;;0.00;0.00;;;18.90;58.80;;;;;;4816846;29;20031;-78